sensor_id;sensor_type;location;lat;lon;timestamp;pressure;altitude;pressure_sealevel;temperature;humidity
33859;BME280;20156;47.486;12.074;2023-04-25T00:57:15;93463.31;;;7.41;100.00
33859;BME280;20156;47.486;12.074;2023-04-25T00:59:44;93380.28;;;7.54;100.00
33859;BME280;20156;47.486;12.074;2023-04-25T01:02:10;93328.09;;;7.57;100.00
33859;BME280;20156;47.486;12.074;2023-04-25T01:04:35;93310.28;;;7.61;100.00
33859;BME280;20156;47.486;12.074;2023-04-25T01:07:01;93301.38;;;7.40;100.00
33859;BME280;20156;47.486;12.074;2023-04-25T01:09:27;93272.09;;;7.51;100.00
33859;BME280;20156;47.486;12.074;2023-04-25T01:11:55;93266.00;;;7.57;100.00
33859;BME280;20156;47.486;12.074;2023-04-25T01:14:20;93249.03;;;7.49;100.00
33859;BME280;20156;47.486;12.074;2023-04-25T01:16:46;93256.09;;;7.54;100.00
33859;BME280;20156;47.486;12.074;2023-04-25T01:19:11;93255.03;;;7.38;100.00
33859;BME280;20156;47.486;12.074;2023-04-25T01:21:41;93239.41;;;7.45;100.00
33859;BME280;20156;47.486;12.074;2023-04-25T01:24:07;93243.88;;;7.49;100.00
33859;BME280;20156;47.486;12.074;2023-04-25T01:26:33;93235.47;;;7.42;100.00
33859;BME280;20156;47.486;12.074;2023-04-25T01:28:59;93208.13;;;7.46;100.00
33859;BME280;20156;47.486;12.074;2023-04-25T01:31:26;93196.31;;;7.22;100.00
33859;BME280;20156;47.486;12.074;2023-04-25T01:33:52;93152.22;;;7.29;100.00
33859;BME280;20156;47.486;12.074;2023-04-25T01:36:18;93119.69;;;7.33;100.00
33859;BME280;20156;47.486;12.074;2023-04-25T01:38:44;93087.50;;;7.23;100.00
33859;BME280;20156;47.486;12.074;2023-04-25T01:41:11;93032.44;;;7.23;100.00
33859;BME280;20156;47.486;12.074;2023-04-25T01:43:37;92992.03;;;7.39;100.00
33859;BME280;20156;47.486;12.074;2023-04-25T01:46:02;92962.16;;;7.48;100.00
33859;BME280;20156;47.486;12.074;2023-04-25T01:48:27;92952.59;;;7.48;100.00
33859;BME280;20156;47.486;12.074;2023-04-25T01:50:53;92940.19;;;7.50;100.00
33859;BME280;20156;47.486;12.074;2023-04-25T01:53:18;92930.03;;;7.44;100.00
33859;BME280;20156;47.486;12.074;2023-04-25T01:55:44;92928.59;;;7.53;100.00
33859;BME280;20156;47.486;12.074;2023-04-25T01:58:09;92921.06;;;7.51;100.00
33859;BME280;20156;47.486;12.074;2023-04-25T02:00:38;92939.00;;;7.58;100.00
33859;BME280;20156;47.486;12.074;2023-04-25T02:03:04;92939.53;;;7.60;100.00
33859;BME280;20156;47.486;12.074;2023-04-25T02:05:39;92944.06;;;7.48;100.00
33859;BME280;20156;47.486;12.074;2023-04-25T02:08:06;92926.19;;;7.24;100.00
33859;BME280;20156;47.486;12.074;2023-04-25T02:10:32;92885.28;;;7.43;100.00
33859;BME280;20156;47.486;12.074;2023-04-25T02:12:58;92879.13;;;7.49;100.00
33859;BME280;20156;47.486;12.074;2023-04-25T02:15:24;92880.34;;;7.20;100.00
33859;BME280;20156;47.486;12.074;2023-04-25T02:17:49;92847.28;;;7.22;100.00
33859;BME280;20156;47.486;12.074;2023-04-25T02:20:15;92807.34;;;7.35;100.00
33859;BME280;20156;47.486;12.074;2023-04-25T02:22:41;92783.69;;;7.48;100.00
33859;BME280;20156;47.486;12.074;2023-04-25T02:25:07;92774.63;;;7.45;100.00
33859;BME280;20156;47.486;12.074;2023-04-25T02:27:34;92749.50;;;7.41;100.00
33859;BME280;20156;47.486;12.074;2023-04-25T02:29:59;92740.78;;;7.52;100.00
33859;BME280;20156;47.486;12.074;2023-04-25T02:32:25;92737.47;;;7.57;100.00
33859;BME280;20156;47.486;12.074;2023-04-25T02:34:52;92722.25;;;7.60;100.00
33859;BME280;20156;47.486;12.074;2023-04-25T02:37:17;92715.44;;;7.54;100.00
33859;BME280;20156;47.486;12.074;2023-04-25T02:39:42;92707.56;;;7.39;100.00
33859;BME280;20156;47.486;12.074;2023-04-25T02:42:08;92681.16;;;7.37;100.00
33859;BME280;20156;47.486;12.074;2023-04-25T02:44:33;92643.47;;;7.41;100.00
33859;BME280;20156;47.486;12.074;2023-04-25T02:46:59;92622.31;;;7.49;100.00
33859;BME280;20156;47.486;12.074;2023-04-25T02:49:24;92619.97;;;7.47;100.00
33859;BME280;20156;47.486;12.074;2023-04-25T02:51:50;92616.09;;;7.50;100.00
33859;BME280;20156;47.486;12.074;2023-04-25T02:54:15;92621.75;;;7.42;100.00
33859;BME280;20156;47.486;12.074;2023-04-25T02:56:41;92648.66;;;7.14;100.00
33859;BME280;20156;47.486;12.074;2023-04-25T02:59:06;92645.75;;;7.05;100.00
33859;BME280;20156;47.486;12.074;2023-04-25T03:01:31;92621.47;;;7.06;100.00
33859;BME280;20156;47.486;12.074;2023-04-25T03:03:57;92604.88;;;7.02;100.00
33859;BME280;20156;47.486;12.074;2023-04-25T03:06:22;92575.94;;;7.00;100.00
33859;BME280;20156;47.486;12.074;2023-04-25T03:08:48;92532.31;;;7.09;100.00
33859;BME280;20156;47.486;12.074;2023-04-25T03:11:13;92519.59;;;7.02;100.00
33859;BME280;20156;47.486;12.074;2023-04-25T03:13:38;92496.56;;;6.96;100.00
33859;BME280;20156;47.486;12.074;2023-04-25T03:16:04;92455.22;;;6.96;100.00
33859;BME280;20156;47.486;12.074;2023-04-25T03:18:30;92423.19;;;6.97;100.00
33859;BME280;20156;47.486;12.074;2023-04-25T03:20:55;92390.72;;;7.16;100.00
33859;BME280;20156;47.486;12.074;2023-04-25T03:23:21;92371.38;;;7.29;100.00
33859;BME280;20156;47.486;12.074;2023-04-25T03:25:46;92371.91;;;7.36;100.00
33859;BME280;20156;47.486;12.074;2023-04-25T03:28:12;92372.94;;;7.30;100.00
33859;BME280;20156;47.486;12.074;2023-04-25T03:30:37;92385.34;;;7.38;100.00
33859;BME280;20156;47.486;12.074;2023-04-25T03:33:02;92394.69;;;7.44;100.00
33859;BME280;20156;47.486;12.074;2023-04-25T03:35:28;92426.97;;;7.36;100.00
33859;BME280;20156;47.486;12.074;2023-04-25T03:37:53;92414.31;;;7.35;100.00
33859;BME280;20156;47.486;12.074;2023-04-25T03:40:19;92411.72;;;7.35;100.00
33859;BME280;20156;47.486;12.074;2023-04-25T03:42:44;92413.78;;;7.28;100.00
33859;BME280;20156;47.486;12.074;2023-04-25T03:45:10;92414.31;;;7.35;100.00
33859;BME280;20156;47.486;12.074;2023-04-25T03:47:36;92419.72;;;7.33;100.00
33859;BME280;20156;47.486;12.074;2023-04-25T03:50:01;92434.47;;;7.33;100.00
33859;BME280;20156;47.486;12.074;2023-04-25T03:52:28;92426.72;;;7.33;100.00
33859;BME280;20156;47.486;12.074;2023-04-25T03:54:53;92412.22;;;7.27;100.00
33859;BME280;20156;47.486;12.074;2023-04-25T03:57:18;92395.16;;;7.31;100.00
33859;BME280;20156;47.486;12.074;2023-04-25T03:59:44;92390.50;;;7.28;100.00
33859;BME280;20156;47.486;12.074;2023-04-25T04:02:09;92389.16;;;7.20;100.00
33859;BME280;20156;47.486;12.074;2023-04-25T04:04:35;92357.38;;;7.14;100.00
33859;BME280;20156;47.486;12.074;2023-04-25T04:07:00;92342.63;;;7.10;100.00
33859;BME280;20156;47.486;12.074;2023-04-25T04:09:26;92313.41;;;7.09;100.00
33859;BME280;20156;47.486;12.074;2023-04-25T04:11:52;92282.41;;;7.19;100.00
33859;BME280;20156;47.486;12.074;2023-04-25T04:14:18;92267.19;;;7.28;100.00
33859;BME280;20156;47.486;12.074;2023-04-25T04:16:43;92262.28;;;7.27;100.00
33859;BME280;20156;47.486;12.074;2023-04-25T04:19:09;92248.84;;;7.24;100.00
33859;BME280;20156;47.486;12.074;2023-04-25T04:21:34;92244.19;;;7.27;100.00
33859;BME280;20156;47.486;12.074;2023-04-25T04:23:59;92243.91;;;7.28;100.00
33859;BME280;20156;47.486;12.074;2023-04-25T04:26:25;92231.78;;;7.34;100.00
33859;BME280;20156;47.486;12.074;2023-04-25T04:28:52;92240.03;;;7.31;100.00
33859;BME280;20156;47.486;12.074;2023-04-25T04:31:19;92239.28;;;7.40;100.00
33859;BME280;20156;47.486;12.074;2023-04-25T04:33:45;92256.06;;;7.38;100.00
33859;BME280;20156;47.486;12.074;2023-04-25T04:36:11;92266.41;;;7.38;100.00
33859;BME280;20156;47.486;12.074;2023-04-25T04:38:37;92290.72;;;7.37;100.00
33859;BME280;20156;47.486;12.074;2023-04-25T04:41:02;92304.97;;;7.39;100.00
33859;BME280;20156;47.486;12.074;2023-04-25T04:43:28;92325.13;;;7.42;100.00
33859;BME280;20156;47.486;12.074;2023-04-25T04:45:55;92340.38;;;7.39;100.00
33859;BME280;20156;47.486;12.074;2023-04-25T04:48:23;92345.06;;;7.52;100.00
33859;BME280;20156;47.486;12.074;2023-04-25T04:50:49;92383.09;;;7.62;100.00
33859;BME280;20156;47.486;12.074;2023-04-25T04:53:14;92419.06;;;7.68;100.00
33859;BME280;20156;47.486;12.074;2023-04-25T04:55:40;92451.41;;;7.71;100.00
33859;BME280;20156;47.486;12.074;2023-04-25T04:58:06;92481.94;;;7.69;100.00
33859;BME280;20156;47.486;12.074;2023-04-25T05:00:32;92502.88;;;7.62;100.00
33859;BME280;20156;47.486;12.074;2023-04-25T05:02:58;92491.50;;;7.63;100.00
33859;BME280;20156;47.486;12.074;2023-04-25T05:05:23;92483.75;;;7.68;100.00
33859;BME280;20156;47.486;12.074;2023-04-25T05:07:49;92486.34;;;7.68;100.00
33859;BME280;20156;47.486;12.074;2023-04-25T05:10:14;92483.53;;;7.80;100.00
33859;BME280;20156;47.486;12.074;2023-04-25T05:12:40;92483.81;;;7.89;100.00
33859;BME280;20156;47.486;12.074;2023-04-25T05:15:06;92496.78;;;7.94;100.00
33859;BME280;20156;47.486;12.074;2023-04-25T05:17:31;92489.03;;;8.04;100.00
33859;BME280;20156;47.486;12.074;2023-04-25T05:19:57;92481.03;;;8.15;100.00
33859;BME280;20156;47.486;12.074;2023-04-25T05:22:23;92497.34;;;8.11;100.00
33859;BME280;20156;47.486;12.074;2023-04-25T05:24:48;92523.00;;;8.18;100.00
33859;BME280;20156;47.486;12.074;2023-04-25T05:27:16;92514.75;;;8.31;100.00
33859;BME280;20156;47.486;12.074;2023-04-25T05:29:41;92579.78;;;8.34;100.00
33859;BME280;20156;47.486;12.074;2023-04-25T05:32:07;92578.53;;;8.47;100.00
33859;BME280;20156;47.486;12.074;2023-04-25T05:34:33;92586.03;;;8.54;100.00
33859;BME280;20156;47.486;12.074;2023-04-25T05:36:59;92605.47;;;8.56;100.00
33859;BME280;20156;47.486;12.074;2023-04-25T05:39:24;92617.38;;;8.52;100.00
33859;BME280;20156;47.486;12.074;2023-04-25T05:41:49;92636.84;;;8.60;100.00
33859;BME280;20156;47.486;12.074;2023-04-25T05:44:15;92646.97;;;8.66;100.00
33859;BME280;20156;47.486;12.074;2023-04-25T05:46:41;92692.59;;;8.67;100.00
33859;BME280;20156;47.486;12.074;2023-04-25T05:49:06;92714.59;;;8.65;100.00
33859;BME280;20156;47.486;12.074;2023-04-25T05:51:32;92739.22;;;8.62;100.00
33859;BME280;20156;47.486;12.074;2023-04-25T05:53:57;92755.28;;;8.59;100.00
33859;BME280;20156;47.486;12.074;2023-04-25T05:56:22;92769.28;;;8.63;100.00
33859;BME280;20156;47.486;12.074;2023-04-25T05:58:48;92808.41;;;8.62;100.00
33859;BME280;20156;47.486;12.074;2023-04-25T06:01:13;92831.97;;;8.60;100.00
33859;BME280;20156;47.486;12.074;2023-04-25T06:03:39;92834.59;;;8.65;100.00
33859;BME280;20156;47.486;12.074;2023-04-25T06:06:08;92821.41;;;8.72;100.00
33859;BME280;20156;47.486;12.074;2023-04-25T06:08:33;92824.53;;;8.74;100.00
33859;BME280;20156;47.486;12.074;2023-04-25T06:10:58;92811.38;;;8.86;100.00
33859;BME280;20156;47.486;12.074;2023-04-25T06:13:24;92821.72;;;8.81;100.00
33859;BME280;20156;47.486;12.074;2023-04-25T06:15:49;92809.28;;;8.88;100.00
33859;BME280;20156;47.486;12.074;2023-04-25T06:18:15;92820.75;;;8.97;100.00
33859;BME280;20156;47.486;12.074;2023-04-25T06:20:40;92858.34;;;8.99;100.00
33859;BME280;20156;47.486;12.074;2023-04-25T06:23:05;92903.25;;;9.05;100.00
33859;BME280;20156;47.486;12.074;2023-04-25T06:25:31;92931.97;;;8.93;100.00
33859;BME280;20156;47.486;12.074;2023-04-25T06:27:56;92901.94;;;9.02;100.00
33859;BME280;20156;47.486;12.074;2023-04-25T06:30:22;92924.06;;;9.20;100.00
33859;BME280;20156;47.486;12.074;2023-04-25T06:32:51;92938.66;;;9.31;100.00
33859;BME280;20156;47.486;12.074;2023-04-25T06:35:16;92979.06;;;9.22;100.00
33859;BME280;20156;47.486;12.074;2023-04-25T06:37:42;92988.25;;;9.35;100.00
33859;BME280;20156;47.486;12.074;2023-04-25T06:40:09;93005.69;;;9.45;100.00
33859;BME280;20156;47.486;12.074;2023-04-25T06:42:34;93045.94;;;9.52;100.00
33859;BME280;20156;47.486;12.074;2023-04-25T06:44:59;93138.41;;;9.58;100.00
33859;BME280;20156;47.486;12.074;2023-04-25T06:47:25;93189.41;;;10.12;100.00
33859;BME280;20156;47.486;12.074;2023-04-25T06:49:50;93327.41;;;10.20;100.00
33859;BME280;20156;47.486;12.074;2023-04-25T06:52:16;93436.16;;;10.29;100.00
33859;BME280;20156;47.486;12.074;2023-04-25T06:54:43;93537.00;;;10.10;100.00
33859;BME280;20156;47.486;12.074;2023-04-25T06:57:08;93480.81;;;10.52;100.00
33859;BME280;20156;47.486;12.074;2023-04-25T06:59:34;93488.81;;;10.46;100.00
33859;BME280;20156;47.486;12.074;2023-04-25T07:01:59;93476.94;;;10.55;100.00
33859;BME280;20156;47.486;12.074;2023-04-25T07:04:25;93513.66;;;10.37;100.00
33859;BME280;20156;47.486;12.074;2023-04-25T07:06:50;93591.00;;;10.08;100.00
33859;BME280;20156;47.486;12.074;2023-04-25T07:09:16;93576.50;;;10.12;100.00
33859;BME280;20156;47.486;12.074;2023-04-25T07:11:41;93666.97;;;10.15;100.00
33859;BME280;20156;47.486;12.074;2023-04-25T07:14:07;93770.28;;;9.62;100.00
33859;BME280;20156;47.486;12.074;2023-04-25T07:16:32;93710.09;;;9.65;100.00
33859;BME280;20156;47.486;12.074;2023-04-25T07:18:58;93681.72;;;9.76;100.00
33859;BME280;20156;47.486;12.074;2023-04-25T07:21:24;93656.75;;;9.91;100.00
33859;BME280;20156;47.486;12.074;2023-04-25T07:23:50;93697.13;;;9.82;100.00
33859;BME280;20156;47.486;12.074;2023-04-25T07:26:16;93698.94;;;9.82;100.00
33859;BME280;20156;47.486;12.074;2023-04-25T07:28:41;93664.94;;;9.67;100.00
33859;BME280;20156;47.486;12.074;2023-04-25T07:31:07;93654.25;;;9.46;100.00
33859;BME280;20156;47.486;12.074;2023-04-25T07:33:33;93608.22;;;9.58;100.00
33859;BME280;20156;47.486;12.074;2023-04-25T07:35:58;93633.47;;;9.80;100.00
33859;BME280;20156;47.486;12.074;2023-04-25T07:38:24;93601.75;;;9.78;100.00
33859;BME280;20156;47.486;12.074;2023-04-25T07:40:50;93551.91;;;9.98;100.00
33859;BME280;20156;47.486;12.074;2023-04-25T07:43:15;93528.72;;;10.13;100.00
33859;BME280;20156;47.486;12.074;2023-04-25T07:45:42;93463.16;;;10.06;100.00
33859;BME280;20156;47.486;12.074;2023-04-25T07:48:08;93445.03;;;10.11;100.00
33859;BME280;20156;47.486;12.074;2023-04-25T07:50:33;93411.44;;;10.26;100.00
33859;BME280;20156;47.486;12.074;2023-04-25T07:52:59;93401.91;;;10.37;100.00
33859;BME280;20156;47.486;12.074;2023-04-25T07:55:24;93366.00;;;10.66;100.00
33859;BME280;20156;47.486;12.074;2023-04-25T07:57:49;93483.75;;;10.34;100.00
33859;BME280;20156;47.486;12.074;2023-04-25T08:00:15;93614.00;;;10.38;100.00
33859;BME280;20156;47.486;12.074;2023-04-25T08:02:40;93649.81;;;10.52;100.00
33859;BME280;20156;47.486;12.074;2023-04-25T08:05:06;93669.53;;;10.92;100.00
33859;BME280;20156;47.486;12.074;2023-04-25T08:07:33;93843.44;;;10.83;100.00
33859;BME280;20156;47.486;12.074;2023-04-25T08:09:59;93994.09;;;11.02;100.00
33859;BME280;20156;47.486;12.074;2023-04-25T08:12:25;94190.94;;;10.79;100.00
33859;BME280;20156;47.486;12.074;2023-04-25T08:14:50;94233.34;;;11.20;100.00
33859;BME280;20156;47.486;12.074;2023-04-25T08:17:16;94307.41;;;11.01;100.00
33859;BME280;20156;47.486;12.074;2023-04-25T08:19:41;94303.44;;;11.10;100.00
33859;BME280;20156;47.486;12.074;2023-04-25T08:22:07;94304.00;;;11.12;100.00
33859;BME280;20156;47.486;12.074;2023-04-25T08:24:32;94279.13;;;11.04;100.00
33859;BME280;20156;47.486;12.074;2023-04-25T08:26:58;94229.97;;;10.56;100.00
33859;BME280;20156;47.486;12.074;2023-04-25T08:29:24;94090.91;;;10.87;100.00
33859;BME280;20156;47.486;12.074;2023-04-25T08:31:51;94108.16;;;11.22;100.00
33859;BME280;20156;47.486;12.074;2023-04-25T08:34:18;94113.44;;;10.81;100.00
33859;BME280;20156;47.486;12.074;2023-04-25T08:36:43;94149.97;;;11.15;100.00
33859;BME280;20156;47.486;12.074;2023-04-25T08:39:09;94182.31;;;11.48;100.00
33859;BME280;20156;47.486;12.074;2023-04-25T08:41:36;94216.06;;;11.71;100.00
33859;BME280;20156;47.486;12.074;2023-04-25T08:44:03;94269.06;;;12.22;100.00
33859;BME280;20156;47.486;12.074;2023-04-25T08:46:30;94328.72;;;12.18;100.00
33859;BME280;20156;47.486;12.074;2023-04-25T08:49:00;94376.50;;;12.24;100.00
33859;BME280;20156;47.486;12.074;2023-04-25T08:51:31;94395.41;;;12.14;100.00
33859;BME280;20156;47.486;12.074;2023-04-25T08:54:11;94402.19;;;12.15;100.00
33859;BME280;20156;47.486;12.074;2023-04-25T08:56:39;94434.63;;;12.64;100.00
33859;BME280;20156;47.486;12.074;2023-04-25T08:59:05;94461.50;;;12.37;100.00
33859;BME280;20156;47.486;12.074;2023-04-25T09:01:34;94466.69;;;12.77;100.00
33859;BME280;20156;47.486;12.074;2023-04-25T09:04:00;94492.34;;;12.40;100.00
33859;BME280;20156;47.486;12.074;2023-04-25T09:06:25;94500.34;;;13.57;100.00
33859;BME280;20156;47.486;12.074;2023-04-25T09:08:52;94584.22;;;13.89;100.00
33859;BME280;20156;47.486;12.074;2023-04-25T09:11:18;94593.56;;;13.51;100.00
33859;BME280;20156;47.486;12.074;2023-04-25T09:13:45;94626.41;;;13.31;100.00
33859;BME280;20156;47.486;12.074;2023-04-25T09:16:10;94599.84;;;12.53;100.00
33859;BME280;20156;47.486;12.074;2023-04-25T09:18:36;94555.94;;;12.62;100.00
33859;BME280;20156;47.486;12.074;2023-04-25T09:21:07;94552.31;;;13.08;100.00
33859;BME280;20156;47.486;12.074;2023-04-25T09:23:43;94546.28;;;13.70;100.00
33859;BME280;20156;47.486;12.074;2023-04-25T09:26:09;94473.31;;;14.07;100.00
33859;BME280;20156;47.486;12.074;2023-04-25T09:28:35;94554.75;;;14.98;100.00
33859;BME280;20156;47.486;12.074;2023-04-25T09:31:01;94448.97;;;14.77;100.00
33859;BME280;20156;47.486;12.074;2023-04-25T09:33:29;94394.97;;;14.66;100.00
33859;BME280;20156;47.486;12.074;2023-04-25T09:36:07;94346.63;;;14.47;100.00
33859;BME280;20156;47.486;12.074;2023-04-25T09:38:44;94404.81;;;14.59;100.00
33859;BME280;20156;47.486;12.074;2023-04-25T09:41:10;94398.88;;;14.63;100.00
33859;BME280;20156;47.486;12.074;2023-04-25T09:43:36;94442.19;;;15.08;100.00
33859;BME280;20156;47.486;12.074;2023-04-25T09:46:04;94446.69;;;15.13;100.00
33859;BME280;20156;47.486;12.074;2023-04-25T09:48:33;94481.09;;;14.94;100.00
33859;BME280;20156;47.486;12.074;2023-04-25T09:53:35;94491.13;;;14.75;100.00
33859;BME280;20156;47.486;12.074;2023-04-25T09:56:04;94477.88;;;14.38;100.00
33859;BME280;20156;47.486;12.074;2023-04-25T09:58:30;94496.44;;;14.15;100.00
33859;BME280;20156;47.486;12.074;2023-04-25T10:01:00;94528.13;;;13.97;100.00
33859;BME280;20156;47.486;12.074;2023-04-25T10:03:26;94539.78;;;13.22;100.00
33859;BME280;20156;47.486;12.074;2023-04-25T10:05:52;94551.03;;;12.94;100.00
33859;BME280;20156;47.486;12.074;2023-04-25T10:08:19;94535.22;;;13.01;100.00
33859;BME280;20156;47.486;12.074;2023-04-25T10:10:46;94519.69;;;13.56;100.00
33859;BME280;20156;47.486;12.074;2023-04-25T10:13:12;94490.78;;;13.63;100.00
33859;BME280;20156;47.486;12.074;2023-04-25T10:15:39;94484.06;;;13.89;100.00
33859;BME280;20156;47.486;12.074;2023-04-25T10:18:06;94491.38;;;12.86;100.00
33859;BME280;20156;47.486;12.074;2023-04-25T10:20:32;94552.81;;;12.37;100.00
33859;BME280;20156;47.486;12.074;2023-04-25T10:23:24;94549.16;;;12.38;100.00
33859;BME280;20156;47.486;12.074;2023-04-25T10:25:52;94538.56;;;12.27;100.00
33859;BME280;20156;47.486;12.074;2023-04-25T10:28:18;94534.50;;;13.05;100.00
33859;BME280;20156;47.486;12.074;2023-04-25T10:31:02;94528.75;;;12.75;100.00
33859;BME280;20156;47.486;12.074;2023-04-25T10:33:39;94525.72;;;12.66;100.00
33859;BME280;20156;47.486;12.074;2023-04-25T10:38:36;94516.25;;;13.72;100.00
33859;BME280;20156;47.486;12.074;2023-04-25T10:41:06;94512.56;;;13.51;100.00
33859;BME280;20156;47.486;12.074;2023-04-25T10:43:43;94499.34;;;13.24;100.00
33859;BME280;20156;47.486;12.074;2023-04-25T10:46:22;94494.09;;;13.58;100.00
33859;BME280;20156;47.486;12.074;2023-04-25T10:48:51;94450.22;;;13.60;100.00
33859;BME280;20156;47.486;12.074;2023-04-25T10:51:17;94434.44;;;13.33;100.00
33859;BME280;20156;47.486;12.074;2023-04-25T10:53:44;94471.53;;;13.52;100.00
33859;BME280;20156;47.486;12.074;2023-04-25T10:56:17;94471.75;;;13.67;100.00
33859;BME280;20156;47.486;12.074;2023-04-25T10:58:44;94472.97;;;13.43;100.00
33859;BME280;20156;47.486;12.074;2023-04-25T11:01:15;94484.78;;;13.29;100.00
33859;BME280;20156;47.486;12.074;2023-04-25T11:03:42;94506.97;;;12.98;100.00
33859;BME280;20156;47.486;12.074;2023-04-25T11:06:20;94524.78;;;12.44;100.00
33859;BME280;20156;47.486;12.074;2023-04-25T11:08:49;94562.84;;;12.56;100.00
33859;BME280;20156;47.486;12.074;2023-04-25T11:11:18;94550.41;;;12.75;100.00
33859;BME280;20156;47.486;12.074;2023-04-25T11:13:48;94560.81;;;13.15;100.00
33859;BME280;20156;47.486;12.074;2023-04-25T11:16:14;94563.50;;;13.49;100.00
33859;BME280;20156;47.486;12.074;2023-04-25T11:18:43;94561.97;;;13.36;100.00
33859;BME280;20156;47.486;12.074;2023-04-25T11:21:10;94560.91;;;13.20;100.00
33859;BME280;20156;47.486;12.074;2023-04-25T11:23:35;94537.72;;;13.24;100.00
33859;BME280;20156;47.486;12.074;2023-04-25T11:26:02;94546.69;;;13.95;100.00
33859;BME280;20156;47.486;12.074;2023-04-25T11:28:28;94557.31;;;14.10;100.00
33859;BME280;20156;47.486;12.074;2023-04-25T11:30:53;94528.69;;;14.86;100.00
33859;BME280;20156;47.486;12.074;2023-04-25T11:33:23;94462.66;;;13.92;100.00
33859;BME280;20156;47.486;12.074;2023-04-25T11:35:49;94446.16;;;13.47;100.00
33859;BME280;20156;47.486;12.074;2023-04-25T11:38:15;94397.44;;;13.41;100.00
33859;BME280;20156;47.486;12.074;2023-04-25T11:40:40;94481.09;;;14.67;100.00
33859;BME280;20156;47.486;12.074;2023-04-25T11:43:06;94387.13;;;14.17;100.00
33859;BME280;20156;47.486;12.074;2023-04-25T11:45:32;94379.94;;;14.88;100.00
33859;BME280;20156;47.486;12.074;2023-04-25T11:47:57;94408.50;;;15.22;100.00
33859;BME280;20156;47.486;12.074;2023-04-25T11:50:23;94374.06;;;15.50;100.00
33859;BME280;20156;47.486;12.074;2023-04-25T11:52:48;94327.72;;;14.71;100.00
33859;BME280;20156;47.486;12.074;2023-04-25T11:55:15;94329.53;;;15.08;100.00
33859;BME280;20156;47.486;12.074;2023-04-25T11:57:43;94313.72;;;14.93;100.00
33859;BME280;20156;47.486;12.074;2023-04-25T12:02:36;94232.22;;;14.84;100.00
33859;BME280;20156;47.486;12.074;2023-04-25T12:05:02;94115.06;;;14.59;100.00
33859;BME280;20156;47.486;12.074;2023-04-25T12:07:31;94160.06;;;14.56;100.00
33859;BME280;20156;47.486;12.074;2023-04-25T12:09:57;94103.41;;;14.35;100.00
33859;BME280;20156;47.486;12.074;2023-04-25T12:12:27;94107.94;;;14.44;100.00
33859;BME280;20156;47.486;12.074;2023-04-25T12:14:52;94063.88;;;13.84;100.00
33859;BME280;20156;47.486;12.074;2023-04-25T12:17:20;93992.50;;;13.78;100.00
33859;BME280;20156;47.486;12.074;2023-04-25T12:19:46;93957.34;;;13.59;100.00
33859;BME280;20156;47.486;12.074;2023-04-25T12:22:23;94004.81;;;13.14;100.00
33859;BME280;20156;47.486;12.074;2023-04-25T12:24:49;94092.81;;;13.13;100.00
33859;BME280;20156;47.486;12.074;2023-04-25T12:27:16;94134.66;;;13.18;100.00
33859;BME280;20156;47.486;12.074;2023-04-25T12:29:51;94139.56;;;13.42;100.00
33859;BME280;20156;47.486;12.074;2023-04-25T12:32:17;94137.53;;;13.44;100.00
33859;BME280;20156;47.486;12.074;2023-04-25T12:34:43;94219.66;;;12.87;100.00
33859;BME280;20156;47.486;12.074;2023-04-25T12:37:08;94395.09;;;13.23;100.00
33859;BME280;20156;47.486;12.074;2023-04-25T12:39:34;94450.09;;;13.50;100.00
33859;BME280;20156;47.486;12.074;2023-04-25T12:41:59;94432.41;;;13.57;100.00
33859;BME280;20156;47.486;12.074;2023-04-25T12:44:25;94445.72;;;13.94;100.00
33859;BME280;20156;47.486;12.074;2023-04-25T12:46:50;94449.66;;;14.62;100.00
33859;BME280;20156;47.486;12.074;2023-04-25T12:49:16;94419.41;;;14.50;100.00
33859;BME280;20156;47.486;12.074;2023-04-25T12:51:41;94426.47;;;14.49;100.00
33859;BME280;20156;47.486;12.074;2023-04-25T12:54:07;94431.69;;;15.08;100.00
33859;BME280;20156;47.486;12.074;2023-04-25T12:56:33;94488.53;;;15.40;100.00
33859;BME280;20156;47.486;12.074;2023-04-25T12:58:59;94495.47;;;15.56;100.00
33859;BME280;20156;47.486;12.074;2023-04-25T13:01:25;94487.22;;;15.37;100.00
33859;BME280;20156;47.486;12.074;2023-04-25T13:03:51;94484.41;;;14.85;100.00
33859;BME280;20156;47.486;12.074;2023-04-25T13:06:18;94491.81;;;14.93;100.00
33859;BME280;20156;47.486;12.074;2023-04-25T13:08:43;94480.25;;;14.89;100.00
33859;BME280;20156;47.486;12.074;2023-04-25T13:11:09;94473.94;;;14.85;100.00
33859;BME280;20156;47.486;12.074;2023-04-25T13:13:34;94461.19;;;15.25;100.00
33859;BME280;20156;47.486;12.074;2023-04-25T13:16:01;94447.91;;;15.74;100.00
33859;BME280;20156;47.486;12.074;2023-04-25T13:18:28;94459.16;;;15.70;100.00
33859;BME280;20156;47.486;12.074;2023-04-25T13:20:53;94448.81;;;15.16;100.00
33859;BME280;20156;47.486;12.074;2023-04-25T13:23:19;94447.66;;;14.48;100.00
33859;BME280;20156;47.486;12.074;2023-04-25T13:25:45;94449.00;;;14.50;100.00
33859;BME280;20156;47.486;12.074;2023-04-25T13:28:11;94446.31;;;14.72;100.00
33859;BME280;20156;47.486;12.074;2023-04-25T13:30:36;94447.84;;;14.68;100.00
33859;BME280;20156;47.486;12.074;2023-04-25T13:33:02;94455.22;;;14.98;100.00
33859;BME280;20156;47.486;12.074;2023-04-25T13:35:32;94453.09;;;15.64;100.00
33859;BME280;20156;47.486;12.074;2023-04-25T13:37:58;94448.75;;;16.52;100.00
33859;BME280;20156;47.486;12.074;2023-04-25T13:40:23;94481.25;;;16.41;100.00
33859;BME280;20156;47.486;12.074;2023-04-25T13:42:49;94514.97;;;14.30;100.00
33859;BME280;20156;47.486;12.074;2023-04-25T13:45:14;94510.59;;;13.97;100.00